Fargo, Oklahoma
Current Conditions -  °F | °C
As of 6:15 PM on Monday 24 Nov 2014 (Local Time) from KWWR Reporting Station
Clear Clear  
Wind Chill: 43°   Ceiling: Unl
Heat Index: 43°   Visibility: 10mi
Dew Point: 14°   Wind: 3mph
Humidity: 31%   Direction: 280°W
Pressure: 30.07"   Gusts: NA
Location:  36.38°N, 99.62°W
Report Text: KWWR 250015Z AUTO 28003KT 10SM CLR 06/M10 A3007 RMK AO2
Loading
Personal Weather Stations






























Interactive Weather Map New forecast layout! Learn more

10-Day Weather Forecast

Advertisements
Track Severe Weather on mobile